sensor_id;sensor_type;location;lat;lon;timestamp;P1;durP1;ratioP1;P2;durP2;ratioP2
25439;SDS011;13365;52.208;5.488;2023-03-01T00:01:16;5.18;;;3.08;;
25439;SDS011;13365;52.208;5.488;2023-03-01T00:03:46;12.50;;;3.70;;
25439;SDS011;13365;52.208;5.488;2023-03-01T00:06:12;7.60;;;2.80;;
25439;SDS011;13365;52.208;5.488;2023-03-01T00:08:38;6.55;;;2.58;;
25439;SDS011;13365;52.208;5.488;2023-03-01T00:13:32;8.48;;;3.28;;
25439;SDS011;13365;52.208;5.488;2023-03-01T00:15:58;11.25;;;3.65;;
25439;SDS011;13365;52.208;5.488;2023-03-01T00:18:24;4.80;;;2.70;;
25439;SDS011;13365;52.208;5.488;2023-03-01T00:20:50;4.70;;;2.78;;
25439;SDS011;13365;52.208;5.488;2023-03-01T00:23:16;5.38;;;2.95;;
25439;SDS011;13365;52.208;5.488;2023-03-01T00:25:42;5.88;;;3.38;;
25439;SDS011;13365;52.208;5.488;2023-03-01T00:28:08;7.60;;;3.22;;
25439;SDS011;13365;52.208;5.488;2023-03-01T00:30:34;6.35;;;2.95;;
25439;SDS011;13365;52.208;5.488;2023-03-01T00:32:59;9.05;;;3.50;;
25439;SDS011;13365;52.208;5.488;2023-03-01T00:35:25;7.22;;;2.67;;
25439;SDS011;13365;52.208;5.488;2023-03-01T00:37:50;3.90;;;2.83;;
25439;SDS011;13365;52.208;5.488;2023-03-01T00:40:22;10.98;;;3.22;;
25439;SDS011;13365;52.208;5.488;2023-03-01T00:42:54;5.40;;;2.65;;
25439;SDS011;13365;52.208;5.488;2023-03-01T00:45:20;12.73;;;4.53;;
25439;SDS011;13365;52.208;5.488;2023-03-01T00:47:47;8.40;;;3.45;;
25439;SDS011;13365;52.208;5.488;2023-03-01T00:50:13;7.25;;;3.80;;
25439;SDS011;13365;52.208;5.488;2023-03-01T00:52:39;7.53;;;2.97;;
25439;SDS011;13365;52.208;5.488;2023-03-01T00:55:04;4.75;;;3.17;;
25439;SDS011;13365;52.208;5.488;2023-03-01T00:57:31;4.07;;;2.67;;
25439;SDS011;13365;52.208;5.488;2023-03-01T00:59:57;4.15;;;2.60;;
25439;SDS011;13365;52.208;5.488;2023-03-01T01:02:22;10.15;;;4.90;;
25439;SDS011;13365;52.208;5.488;2023-03-01T01:04:48;3.80;;;2.42;;
25439;SDS011;13365;52.208;5.488;2023-03-01T01:07:14;5.35;;;2.53;;
25439;SDS011;13365;52.208;5.488;2023-03-01T01:09:40;6.28;;;3.67;;
25439;SDS011;13365;52.208;5.488;2023-03-01T01:12:06;4.63;;;2.90;;
25439;SDS011;13365;52.208;5.488;2023-03-01T01:14:32;5.38;;;3.17;;
25439;SDS011;13365;52.208;5.488;2023-03-01T01:16:58;12.27;;;4.30;;
25439;SDS011;13365;52.208;5.488;2023-03-01T01:19:24;5.15;;;2.78;;
25439;SDS011;13365;52.208;5.488;2023-03-01T01:21:50;5.65;;;2.75;;
25439;SDS011;13365;52.208;5.488;2023-03-01T01:24:16;10.07;;;4.20;;
25439;SDS011;13365;52.208;5.488;2023-03-01T01:26:42;9.52;;;3.72;;
25439;SDS011;13365;52.208;5.488;2023-03-01T01:29:08;5.93;;;3.33;;
25439;SDS011;13365;52.208;5.488;2023-03-01T01:31:35;6.43;;;2.92;;
25439;SDS011;13365;52.208;5.488;2023-03-01T01:34:02;7.88;;;4.07;;
25439;SDS011;13365;52.208;5.488;2023-03-01T01:36:29;8.43;;;3.88;;
25439;SDS011;13365;52.208;5.488;2023-03-01T01:38:54;8.45;;;3.83;;
25439;SDS011;13365;52.208;5.488;2023-03-01T01:41:20;5.20;;;3.42;;
25439;SDS011;13365;52.208;5.488;2023-03-01T01:43:48;8.38;;;4.43;;
25439;SDS011;13365;52.208;5.488;2023-03-01T01:46:34;6.30;;;3.25;;
25439;SDS011;13365;52.208;5.488;2023-03-01T01:49:07;9.00;;;3.40;;
25439;SDS011;13365;52.208;5.488;2023-03-01T01:51:47;5.20;;;2.88;;
25439;SDS011;13365;52.208;5.488;2023-03-01T01:54:20;6.28;;;4.25;;
25439;SDS011;13365;52.208;5.488;2023-03-01T01:57:00;3.95;;;3.53;;
25439;SDS011;13365;52.208;5.488;2023-03-01T01:59:28;8.95;;;3.30;;
25439;SDS011;13365;52.208;5.488;2023-03-01T02:01:57;5.75;;;3.85;;
25439;SDS011;13365;52.208;5.488;2023-03-01T02:04:26;8.27;;;4.65;;
25439;SDS011;13365;52.208;5.488;2023-03-01T02:07:03;10.68;;;5.10;;
25439;SDS011;13365;52.208;5.488;2023-03-01T02:09:35;8.57;;;4.18;;
25439;SDS011;13365;52.208;5.488;2023-03-01T02:12:01;9.45;;;3.80;;
25439;SDS011;13365;52.208;5.488;2023-03-01T02:14:29;6.85;;;3.55;;
25439;SDS011;13365;52.208;5.488;2023-03-01T02:16:54;6.65;;;3.40;;
25439;SDS011;13365;52.208;5.488;2023-03-01T02:20:09;11.50;;;5.05;;
25439;SDS011;13365;52.208;5.488;2023-03-01T02:25:00;4.78;;;3.40;;
25439;SDS011;13365;52.208;5.488;2023-03-01T02:27:47;9.73;;;3.67;;
25439;SDS011;13365;52.208;5.488;2023-03-01T02:30:33;6.20;;;2.83;;
25439;SDS011;13365;52.208;5.488;2023-03-01T02:32:59;7.47;;;4.65;;
25439;SDS011;13365;52.208;5.488;2023-03-01T02:35:33;18.92;;;3.58;;
25439;SDS011;13365;52.208;5.488;2023-03-01T02:40:27;11.20;;;5.63;;
25439;SDS011;13365;52.208;5.488;2023-03-01T02:42:56;8.02;;;3.63;;
25439;SDS011;13365;52.208;5.488;2023-03-01T02:45:23;19.13;;;5.10;;
25439;SDS011;13365;52.208;5.488;2023-03-01T02:47:50;9.88;;;4.85;;
25439;SDS011;13365;52.208;5.488;2023-03-01T02:52:57;8.00;;;3.90;;
25439;SDS011;13365;52.208;5.488;2023-03-01T02:55:32;9.65;;;4.00;;
25439;SDS011;13365;52.208;5.488;2023-03-01T02:57:58;10.88;;;4.53;;
25439;SDS011;13365;52.208;5.488;2023-03-01T03:00:35;7.15;;;3.42;;
25439;SDS011;13365;52.208;5.488;2023-03-01T03:03:05;17.40;;;4.95;;
25439;SDS011;13365;52.208;5.488;2023-03-01T03:05:31;6.60;;;3.97;;
25439;SDS011;13365;52.208;5.488;2023-03-01T03:07:58;5.88;;;3.05;;
25439;SDS011;13365;52.208;5.488;2023-03-01T03:10:30;8.15;;;4.25;;
25439;SDS011;13365;52.208;5.488;2023-03-01T03:13:02;21.45;;;4.97;;
25439;SDS011;13365;52.208;5.488;2023-03-01T03:15:30;19.40;;;5.22;;
25439;SDS011;13365;52.208;5.488;2023-03-01T03:17:57;6.85;;;3.80;;
25439;SDS011;13365;52.208;5.488;2023-03-01T03:20:24;10.88;;;3.58;;
25439;SDS011;13365;52.208;5.488;2023-03-01T03:22:52;8.02;;;4.40;;
25439;SDS011;13365;52.208;5.488;2023-03-01T03:25:20;6.05;;;3.28;;
25439;SDS011;13365;52.208;5.488;2023-03-01T03:27:47;6.55;;;4.03;;
25439;SDS011;13365;52.208;5.488;2023-03-01T03:30:15;8.30;;;3.85;;
25439;SDS011;13365;52.208;5.488;2023-03-01T03:32:43;4.97;;;3.45;;
25439;SDS011;13365;52.208;5.488;2023-03-01T03:35:17;6.50;;;4.68;;
25439;SDS011;13365;52.208;5.488;2023-03-01T03:37:44;6.93;;;4.00;;
25439;SDS011;13365;52.208;5.488;2023-03-01T03:40:31;5.50;;;3.55;;
25439;SDS011;13365;52.208;5.488;2023-03-01T03:43:03;6.53;;;2.80;;
25439;SDS011;13365;52.208;5.488;2023-03-01T03:45:30;5.30;;;3.50;;
25439;SDS011;13365;52.208;5.488;2023-03-01T03:47:58;12.25;;;4.40;;
25439;SDS011;13365;52.208;5.488;2023-03-01T03:50:24;11.55;;;4.28;;
25439;SDS011;13365;52.208;5.488;2023-03-01T03:52:50;6.38;;;3.03;;
25439;SDS011;13365;52.208;5.488;2023-03-01T03:55:15;7.65;;;3.78;;
25439;SDS011;13365;52.208;5.488;2023-03-01T03:57:44;6.93;;;3.45;;
25439;SDS011;13365;52.208;5.488;2023-03-01T04:00:16;13.63;;;5.63;;
25439;SDS011;13365;52.208;5.488;2023-03-01T04:02:44;6.93;;;4.25;;
25439;SDS011;13365;52.208;5.488;2023-03-01T04:05:11;9.02;;;3.50;;
25439;SDS011;13365;52.208;5.488;2023-03-01T04:07:39;6.65;;;3.80;;
25439;SDS011;13365;52.208;5.488;2023-03-01T04:10:06;8.27;;;4.65;;
25439;SDS011;13365;52.208;5.488;2023-03-01T04:12:34;11.68;;;4.35;;
25439;SDS011;13365;52.208;5.488;2023-03-01T04:15:00;8.73;;;4.45;;
25439;SDS011;13365;52.208;5.488;2023-03-01T04:17:28;7.43;;;3.88;;
25439;SDS011;13365;52.208;5.488;2023-03-01T04:19:53;13.50;;;3.83;;
25439;SDS011;13365;52.208;5.488;2023-03-01T04:22:19;10.77;;;4.50;;
25439;SDS011;13365;52.208;5.488;2023-03-01T04:24:44;4.90;;;2.85;;
25439;SDS011;13365;52.208;5.488;2023-03-01T04:27:10;11.27;;;4.60;;
25439;SDS011;13365;52.208;5.488;2023-03-01T04:29:36;10.82;;;3.92;;
25439;SDS011;13365;52.208;5.488;2023-03-01T04:32:02;9.43;;;3.00;;
25439;SDS011;13365;52.208;5.488;2023-03-01T04:34:28;15.32;;;4.95;;
25439;SDS011;13365;52.208;5.488;2023-03-01T04:36:54;9.10;;;5.47;;
25439;SDS011;13365;52.208;5.488;2023-03-01T04:39:20;14.93;;;4.10;;
25439;SDS011;13365;52.208;5.488;2023-03-01T04:41:46;14.07;;;4.38;;
25439;SDS011;13365;52.208;5.488;2023-03-01T04:44:11;9.32;;;4.57;;
25439;SDS011;13365;52.208;5.488;2023-03-01T04:46:37;3.50;;;2.38;;
25439;SDS011;13365;52.208;5.488;2023-03-01T04:49:03;8.20;;;4.28;;
25439;SDS011;13365;52.208;5.488;2023-03-01T04:51:30;11.68;;;4.60;;
25439;SDS011;13365;52.208;5.488;2023-03-01T04:53:57;6.00;;;2.95;;
25439;SDS011;13365;52.208;5.488;2023-03-01T04:56:23;7.85;;;3.13;;
25439;SDS011;13365;52.208;5.488;2023-03-01T04:58:49;5.55;;;3.58;;
25439;SDS011;13365;52.208;5.488;2023-03-01T05:01:15;10.15;;;3.50;;
25439;SDS011;13365;52.208;5.488;2023-03-01T05:03:43;5.00;;;3.08;;
25439;SDS011;13365;52.208;5.488;2023-03-01T05:06:09;20.42;;;3.83;;
25439;SDS011;13365;52.208;5.488;2023-03-01T05:08:36;13.13;;;5.55;;
25439;SDS011;13365;52.208;5.488;2023-03-01T05:11:03;4.82;;;3.05;;
25439;SDS011;13365;52.208;5.488;2023-03-01T05:13:29;9.13;;;3.88;;
25439;SDS011;13365;52.208;5.488;2023-03-01T05:15:55;11.55;;;4.32;;
25439;SDS011;13365;52.208;5.488;2023-03-01T05:18:23;17.45;;;3.92;;
25439;SDS011;13365;52.208;5.488;2023-03-01T05:20:51;6.43;;;2.25;;
25439;SDS011;13365;52.208;5.488;2023-03-01T05:23:23;5.45;;;3.47;;
25439;SDS011;13365;52.208;5.488;2023-03-01T05:25:49;5.97;;;3.40;;
25439;SDS011;13365;52.208;5.488;2023-03-01T05:28:17;5.65;;;3.35;;
25439;SDS011;13365;52.208;5.488;2023-03-01T05:30:44;8.70;;;3.35;;
25439;SDS011;13365;52.208;5.488;2023-03-01T05:33:10;5.15;;;2.92;;
25439;SDS011;13365;52.208;5.488;2023-03-01T05:35:38;9.25;;;4.82;;
25439;SDS011;13365;52.208;5.488;2023-03-01T05:38:06;7.47;;;3.63;;
25439;SDS011;13365;52.208;5.488;2023-03-01T05:40:32;4.50;;;1.98;;
25439;SDS011;13365;52.208;5.488;2023-03-01T05:42:58;7.72;;;2.53;;
25439;SDS011;13365;52.208;5.488;2023-03-01T05:45:24;6.60;;;2.97;;
25439;SDS011;13365;52.208;5.488;2023-03-01T05:47:52;16.70;;;3.15;;
25439;SDS011;13365;52.208;5.488;2023-03-01T05:50:21;6.45;;;2.97;;
25439;SDS011;13365;52.208;5.488;2023-03-01T05:52:48;5.13;;;3.65;;
25439;SDS011;13365;52.208;5.488;2023-03-01T05:55:20;3.25;;;2.33;;
25439;SDS011;13365;52.208;5.488;2023-03-01T05:57:46;6.65;;;4.18;;
25439;SDS011;13365;52.208;5.488;2023-03-01T06:00:12;9.38;;;3.20;;
25439;SDS011;13365;52.208;5.488;2023-03-01T06:02:40;6.60;;;3.75;;
25439;SDS011;13365;52.208;5.488;2023-03-01T06:05:07;10.35;;;3.83;;
25439;SDS011;13365;52.208;5.488;2023-03-01T06:07:34;9.00;;;3.85;;
25439;SDS011;13365;52.208;5.488;2023-03-01T06:10:00;11.80;;;4.18;;
25439;SDS011;13365;52.208;5.488;2023-03-01T06:12:26;6.78;;;3.15;;
25439;SDS011;13365;52.208;5.488;2023-03-01T06:14:55;3.75;;;2.83;;
25439;SDS011;13365;52.208;5.488;2023-03-01T06:17:20;9.63;;;4.68;;
25439;SDS011;13365;52.208;5.488;2023-03-01T06:19:46;7.53;;;3.38;;
25439;SDS011;13365;52.208;5.488;2023-03-01T06:22:12;4.50;;;2.83;;
25439;SDS011;13365;52.208;5.488;2023-03-01T06:24:38;9.75;;;4.70;;
25439;SDS011;13365;52.208;5.488;2023-03-01T06:27:03;7.45;;;3.72;;
25439;SDS011;13365;52.208;5.488;2023-03-01T06:29:29;5.70;;;2.85;;
25439;SDS011;13365;52.208;5.488;2023-03-01T06:31:55;15.23;;;5.15;;
25439;SDS011;13365;52.208;5.488;2023-03-01T06:34:20;6.63;;;4.00;;
25439;SDS011;13365;52.208;5.488;2023-03-01T06:36:46;9.23;;;3.50;;
25439;SDS011;13365;52.208;5.488;2023-03-01T06:39:12;7.53;;;4.13;;
25439;SDS011;13365;52.208;5.488;2023-03-01T06:41:38;9.75;;;4.65;;
25439;SDS011;13365;52.208;5.488;2023-03-01T06:44:03;12.27;;;3.70;;
25439;SDS011;13365;52.208;5.488;2023-03-01T06:46:29;3.80;;;2.85;;
25439;SDS011;13365;52.208;5.488;2023-03-01T06:48:55;8.30;;;4.53;;
25439;SDS011;13365;52.208;5.488;2023-03-01T06:51:20;16.13;;;5.00;;
25439;SDS011;13365;52.208;5.488;2023-03-01T06:53:46;9.27;;;4.25;;
25439;SDS011;13365;52.208;5.488;2023-03-01T06:56:11;8.73;;;3.80;;
25439;SDS011;13365;52.208;5.488;2023-03-01T06:58:37;7.93;;;3.92;;
25439;SDS011;13365;52.208;5.488;2023-03-01T07:01:09;10.05;;;3.78;;
25439;SDS011;13365;52.208;5.488;2023-03-01T07:03:34;14.98;;;4.80;;
25439;SDS011;13365;52.208;5.488;2023-03-01T07:06:00;5.95;;;3.60;;
25439;SDS011;13365;52.208;5.488;2023-03-01T07:08:25;6.18;;;3.67;;
25439;SDS011;13365;52.208;5.488;2023-03-01T07:10:55;9.60;;;3.55;;
25439;SDS011;13365;52.208;5.488;2023-03-01T07:13:21;12.07;;;4.18;;
25439;SDS011;13365;52.208;5.488;2023-03-01T07:15:47;11.40;;;4.85;;
25439;SDS011;13365;52.208;5.488;2023-03-01T07:18:12;6.95;;;3.97;;
25439;SDS011;13365;52.208;5.488;2023-03-01T07:20:38;12.88;;;5.40;;
25439;SDS011;13365;52.208;5.488;2023-03-01T07:23:04;7.43;;;4.35;;
25439;SDS011;13365;52.208;5.488;2023-03-01T07:25:31;10.45;;;4.55;;
25439;SDS011;13365;52.208;5.488;2023-03-01T07:27:57;16.73;;;5.35;;
25439;SDS011;13365;52.208;5.488;2023-03-01T07:30:23;11.32;;;4.28;;
25439;SDS011;13365;52.208;5.488;2023-03-01T07:32:52;11.48;;;6.25;;
25439;SDS011;13365;52.208;5.488;2023-03-01T07:35:17;10.48;;;5.03;;
25439;SDS011;13365;52.208;5.488;2023-03-01T07:37:43;19.20;;;5.03;;
25439;SDS011;13365;52.208;5.488;2023-03-01T07:40:09;9.55;;;5.35;;
25439;SDS011;13365;52.208;5.488;2023-03-01T07:42:35;8.80;;;4.38;;
25439;SDS011;13365;52.208;5.488;2023-03-01T07:45:00;12.05;;;4.53;;
25439;SDS011;13365;52.208;5.488;2023-03-01T07:47:26;9.32;;;5.43;;
25439;SDS011;13365;52.208;5.488;2023-03-01T07:49:51;9.77;;;5.22;;
25439;SDS011;13365;52.208;5.488;2023-03-01T07:52:17;10.23;;;4.28;;
25439;SDS011;13365;52.208;5.488;2023-03-01T07:54:42;10.13;;;4.80;;
25439;SDS011;13365;52.208;5.488;2023-03-01T07:57:09;12.00;;;5.07;;
25439;SDS011;13365;52.208;5.488;2023-03-01T07:59:35;9.43;;;5.68;;
25439;SDS011;13365;52.208;5.488;2023-03-01T08:02:00;10.93;;;5.22;;
25439;SDS011;13365;52.208;5.488;2023-03-01T08:04:26;21.75;;;5.60;;
25439;SDS011;13365;52.208;5.488;2023-03-01T08:06:52;9.60;;;4.90;;
25439;SDS011;13365;52.208;5.488;2023-03-01T08:09:18;11.00;;;5.18;;
25439;SDS011;13365;52.208;5.488;2023-03-01T08:11:44;10.93;;;5.07;;
25439;SDS011;13365;52.208;5.488;2023-03-01T08:14:09;13.55;;;5.75;;
25439;SDS011;13365;52.208;5.488;2023-03-01T08:16:35;8.73;;;4.47;;
25439;SDS011;13365;52.208;5.488;2023-03-01T08:19:05;11.38;;;4.15;;
25439;SDS011;13365;52.208;5.488;2023-03-01T08:21:32;8.85;;;4.25;;
25439;SDS011;13365;52.208;5.488;2023-03-01T08:23:59;9.32;;;4.57;;
25439;SDS011;13365;52.208;5.488;2023-03-01T08:26:26;10.63;;;5.25;;
25439;SDS011;13365;52.208;5.488;2023-03-01T08:28:52;11.82;;;6.03;;
25439;SDS011;13365;52.208;5.488;2023-03-01T08:33:51;9.75;;;5.15;;
25439;SDS011;13365;52.208;5.488;2023-03-01T08:36:25;10.38;;;5.10;;
25439;SDS011;13365;52.208;5.488;2023-03-01T08:38:55;9.23;;;5.05;;
25439;SDS011;13365;52.208;5.488;2023-03-01T08:41:21;15.75;;;5.63;;
25439;SDS011;13365;52.208;5.488;2023-03-01T08:43:47;10.85;;;5.57;;
25439;SDS011;13365;52.208;5.488;2023-03-01T08:46:13;7.63;;;3.63;;
25439;SDS011;13365;52.208;5.488;2023-03-01T08:48:39;8.90;;;5.07;;
25439;SDS011;13365;52.208;5.488;2023-03-01T08:51:08;11.52;;;4.85;;
25439;SDS011;13365;52.208;5.488;2023-03-01T08:53:34;7.50;;;3.80;;
25439;SDS011;13365;52.208;5.488;2023-03-01T08:56:00;10.93;;;4.60;;
25439;SDS011;13365;52.208;5.488;2023-03-01T08:58:27;9.05;;;5.10;;
25439;SDS011;13365;52.208;5.488;2023-03-01T09:00:53;10.98;;;4.72;;
25439;SDS011;13365;52.208;5.488;2023-03-01T09:03:18;8.98;;;3.72;;
25439;SDS011;13365;52.208;5.488;2023-03-01T09:05:44;10.07;;;4.88;;
25439;SDS011;13365;52.208;5.488;2023-03-01T09:08:10;13.77;;;4.40;;
25439;SDS011;13365;52.208;5.488;2023-03-01T09:10:39;10.48;;;5.00;;
25439;SDS011;13365;52.208;5.488;2023-03-01T09:13:05;7.60;;;4.28;;
25439;SDS011;13365;52.208;5.488;2023-03-01T09:15:30;15.23;;;5.43;;
25439;SDS011;13365;52.208;5.488;2023-03-01T09:17:56;12.25;;;4.47;;
25439;SDS011;13365;52.208;5.488;2023-03-01T09:20:21;7.63;;;4.50;;
25439;SDS011;13365;52.208;5.488;2023-03-01T09:22:47;9.70;;;4.78;;
25439;SDS011;13365;52.208;5.488;2023-03-01T09:25:12;11.27;;;3.95;;
25439;SDS011;13365;52.208;5.488;2023-03-01T09:27:38;8.90;;;3.85;;
25439;SDS011;13365;52.208;5.488;2023-03-01T09:30:04;8.70;;;3.58;;
25439;SDS011;13365;52.208;5.488;2023-03-01T09:32:30;5.15;;;3.22;;
25439;SDS011;13365;52.208;5.488;2023-03-01T09:34:56;5.15;;;2.63;;
25439;SDS011;13365;52.208;5.488;2023-03-01T09:37:34;7.43;;;3.33;;
25439;SDS011;13365;52.208;5.488;2023-03-01T09:40:00;5.10;;;2.60;;
25439;SDS011;13365;52.208;5.488;2023-03-01T09:42:28;11.32;;;3.22;;
25439;SDS011;13365;52.208;5.488;2023-03-01T09:45:06;15.25;;;2.92;;
25439;SDS011;13365;52.208;5.488;2023-03-01T09:47:40;5.53;;;2.45;;
25439;SDS011;13365;52.208;5.488;2023-03-01T09:50:10;5.15;;;3.13;;
25439;SDS011;13365;52.208;5.488;2023-03-01T09:55:39;3.90;;;1.95;;
25439;SDS011;13365;52.208;5.488;2023-03-01T10:04:22;4.10;;;1.27;;
25439;SDS011;13365;52.208;5.488;2023-03-01T10:07:31;1.83;;;1.30;;
25439;SDS011;13365;52.208;5.488;2023-03-01T10:13:00;2.63;;;1.38;;
25439;SDS011;13365;52.208;5.488;2023-03-01T10:15:37;3.50;;;1.50;;
25439;SDS011;13365;52.208;5.488;2023-03-01T10:18:18;2.72;;;1.83;;
25439;SDS011;13365;52.208;5.488;2023-03-01T10:20:58;1.80;;;0.85;;
25439;SDS011;13365;52.208;5.488;2023-03-01T10:23:24;3.33;;;1.27;;
25439;SDS011;13365;52.208;5.488;2023-03-01T10:25:56;2.63;;;1.55;;
25439;SDS011;13365;52.208;5.488;2023-03-01T10:31:23;3.78;;;1.65;;
25439;SDS011;13365;52.208;5.488;2023-03-01T10:33:53;3.67;;;0.90;;
25439;SDS011;13365;52.208;5.488;2023-03-01T10:36:20;8.02;;;2.20;;
25439;SDS011;13365;52.208;5.488;2023-03-01T10:38:51;2.67;;;1.40;;
25439;SDS011;13365;52.208;5.488;2023-03-01T10:41:19;4.00;;;1.35;;
25439;SDS011;13365;52.208;5.488;2023-03-01T10:43:52;4.65;;;1.38;;
25439;SDS011;13365;52.208;5.488;2023-03-01T10:49:02;2.83;;;0.90;;
25439;SDS011;13365;52.208;5.488;2023-03-01T10:51:48;1.85;;;1.10;;
25439;SDS011;13365;52.208;5.488;2023-03-01T10:54:23;1.88;;;1.02;;
25439;SDS011;13365;52.208;5.488;2023-03-01T10:56:53;3.15;;;1.08;;
25439;SDS011;13365;52.208;5.488;2023-03-01T10:59:27;2.13;;;0.80;;
25439;SDS011;13365;52.208;5.488;2023-03-01T11:02:01;1.38;;;0.93;;
25439;SDS011;13365;52.208;5.488;2023-03-01T11:04:27;7.32;;;1.30;;
25439;SDS011;13365;52.208;5.488;2023-03-01T11:06:59;2.60;;;1.40;;
25439;SDS011;13365;52.208;5.488;2023-03-01T11:09:29;3.08;;;1.40;;
25439;SDS011;13365;52.208;5.488;2023-03-01T11:12:02;4.10;;;1.33;;
25439;SDS011;13365;52.208;5.488;2023-03-01T11:14:35;2.58;;;1.30;;
25439;SDS011;13365;52.208;5.488;2023-03-01T11:17:12;1.10;;;0.93;;
25439;SDS011;13365;52.208;5.488;2023-03-01T11:19:40;2.00;;;0.73;;
25439;SDS011;13365;52.208;5.488;2023-03-01T11:22:13;5.57;;;0.98;;
25439;SDS011;13365;52.208;5.488;2023-03-01T11:24:43;2.22;;;0.90;;
25439;SDS011;13365;52.208;5.488;2023-03-01T11:27:19;7.07;;;0.85;;
25439;SDS011;13365;52.208;5.488;2023-03-01T11:29:59;3.42;;;1.65;;
25439;SDS011;13365;52.208;5.488;2023-03-01T11:32:53;2.72;;;0.80;;
25439;SDS011;13365;52.208;5.488;2023-03-01T11:35:35;2.22;;;1.05;;
25439;SDS011;13365;52.208;5.488;2023-03-01T11:40:49;2.45;;;1.15;;
25439;SDS011;13365;52.208;5.488;2023-03-01T11:48:57;3.10;;;1.60;;
25439;SDS011;13365;52.208;5.488;2023-03-01T12:02:28;0.93;;;0.70;;
25439;SDS011;13365;52.208;5.488;2023-03-01T12:07:59;3.42;;;1.30;;
25439;SDS011;13365;52.208;5.488;2023-03-01T12:10:35;4.18;;;1.48;;
25439;SDS011;13365;52.208;5.488;2023-03-01T12:16:20;2.17;;;0.95;;
25439;SDS011;13365;52.208;5.488;2023-03-01T12:18:55;2.47;;;1.45;;
25439;SDS011;13365;52.208;5.488;2023-03-01T12:33:16;2.75;;;1.63;;
25439;SDS011;13365;52.208;5.488;2023-03-01T12:35:58;2.83;;;0.85;;
25439;SDS011;13365;52.208;5.488;2023-03-01T12:49:38;3.75;;;1.50;;
25439;SDS011;13365;52.208;5.488;2023-03-01T12:52:18;2.40;;;1.50;;
25439;SDS011;13365;52.208;5.488;2023-03-01T12:54:52;2.83;;;1.60;;
25439;SDS011;13365;52.208;5.488;2023-03-01T13:02:46;2.67;;;1.10;;
25439;SDS011;13365;52.208;5.488;2023-03-01T13:15:46;2.90;;;1.63;;
25439;SDS011;13365;52.208;5.488;2023-03-01T13:31:03;2.72;;;1.20;;
25439;SDS011;13365;52.208;5.488;2023-03-01T13:35:58;2.63;;;1.65;;
25439;SDS011;13365;52.208;5.488;2023-03-01T13:38:38;3.60;;;1.73;;
25439;SDS011;13365;52.208;5.488;2023-03-01T13:41:05;2.58;;;1.50;;
25439;SDS011;13365;52.208;5.488;2023-03-01T13:43:38;1.33;;;0.98;;
25439;SDS011;13365;52.208;5.488;2023-03-01T13:46:15;2.33;;;0.95;;
25439;SDS011;13365;52.208;5.488;2023-03-01T13:48:45;1.88;;;1.10;;
25439;SDS011;13365;52.208;5.488;2023-03-01T13:51:13;1.92;;;0.68;;
25439;SDS011;13365;52.208;5.488;2023-03-01T13:53:41;3.70;;;1.52;;
25439;SDS011;13365;52.208;5.488;2023-03-01T13:56:12;5.15;;;1.30;;
25439;SDS011;13365;52.208;5.488;2023-03-01T13:58:51;2.03;;;1.27;;
25439;SDS011;13365;52.208;5.488;2023-03-01T14:01:24;2.92;;;1.13;;
25439;SDS011;13365;52.208;5.488;2023-03-01T14:03:52;2.42;;;1.20;;
25439;SDS011;13365;52.208;5.488;2023-03-01T14:06:25;4.55;;;1.05;;
25439;SDS011;13365;52.208;5.488;2023-03-01T14:09:08;2.40;;;1.20;;
25439;SDS011;13365;52.208;5.488;2023-03-01T14:14:39;3.83;;;1.67;;
25439;SDS011;13365;52.208;5.488;2023-03-01T14:17:32;2.38;;;1.30;;
25439;SDS011;13365;52.208;5.488;2023-03-01T14:22:43;2.30;;;1.50;;
25439;SDS011;13365;52.208;5.488;2023-03-01T14:27:54;3.05;;;1.40;;
25439;SDS011;13365;52.208;5.488;2023-03-01T14:30:40;2.35;;;1.17;;
25439;SDS011;13365;52.208;5.488;2023-03-01T14:35:55;4.28;;;1.77;;
25439;SDS011;13365;52.208;5.488;2023-03-01T14:38:27;3.33;;;1.75;;
25439;SDS011;13365;52.208;5.488;2023-03-01T14:41:01;3.05;;;1.25;;
25439;SDS011;13365;52.208;5.488;2023-03-01T14:43:38;4.35;;;1.40;;
25439;SDS011;13365;52.208;5.488;2023-03-01T14:46:24;3.50;;;1.40;;
25439;SDS011;13365;52.208;5.488;2023-03-01T14:48:54;13.40;;;1.35;;
25439;SDS011;13365;52.208;5.488;2023-03-01T14:51:26;2.25;;;1.33;;
25439;SDS011;13365;52.208;5.488;2023-03-01T14:53:52;2.83;;;1.40;;
25439;SDS011;13365;52.208;5.488;2023-03-01T14:56:18;2.53;;;1.25;;
25439;SDS011;13365;52.208;5.488;2023-03-01T14:58:44;7.38;;;1.70;;
25439;SDS011;13365;52.208;5.488;2023-03-01T15:01:16;2.88;;;1.38;;
25439;SDS011;13365;52.208;5.488;2023-03-01T15:03:49;2.75;;;1.40;;
25439;SDS011;13365;52.208;5.488;2023-03-01T15:06:17;3.50;;;1.30;;
25439;SDS011;13365;52.208;5.488;2023-03-01T15:08:46;3.55;;;1.35;;
25439;SDS011;13365;52.208;5.488;2023-03-01T15:11:20;2.80;;;1.58;;
25439;SDS011;13365;52.208;5.488;2023-03-01T15:13:49;3.35;;;1.52;;
25439;SDS011;13365;52.208;5.488;2023-03-01T15:16:20;4.10;;;1.58;;
25439;SDS011;13365;52.208;5.488;2023-03-01T15:18:49;4.45;;;1.05;;
25439;SDS011;13365;52.208;5.488;2023-03-01T15:21:24;2.83;;;1.73;;
25439;SDS011;13365;52.208;5.488;2023-03-01T15:23:57;3.53;;;1.42;;
25439;SDS011;13365;52.208;5.488;2023-03-01T15:26:40;2.95;;;1.35;;
25439;SDS011;13365;52.208;5.488;2023-03-01T15:29:14;3.53;;;1.45;;
25439;SDS011;13365;52.208;5.488;2023-03-01T15:31:59;1.50;;;1.20;;
25439;SDS011;13365;52.208;5.488;2023-03-01T15:34:46;6.50;;;1.27;;
25439;SDS011;13365;52.208;5.488;2023-03-01T15:42:49;3.10;;;1.63;;
25439;SDS011;13365;52.208;5.488;2023-03-01T15:47:43;3.10;;;1.48;;
25439;SDS011;13365;52.208;5.488;2023-03-01T15:53:00;13.35;;;1.85;;
25439;SDS011;13365;52.208;5.488;2023-03-01T15:55:27;2.58;;;1.42;;
25439;SDS011;13365;52.208;5.488;2023-03-01T16:00:40;3.75;;;1.45;;
25439;SDS011;13365;52.208;5.488;2023-03-01T16:03:06;2.58;;;1.42;;
25439;SDS011;13365;52.208;5.488;2023-03-01T16:05:34;2.88;;;1.48;;
25439;SDS011;13365;52.208;5.488;2023-03-01T16:08:01;2.25;;;1.10;;
25439;SDS011;13365;52.208;5.488;2023-03-01T16:10:27;2.55;;;1.50;;
25439;SDS011;13365;52.208;5.488;2023-03-01T16:12:53;5.97;;;2.05;;
25439;SDS011;13365;52.208;5.488;2023-03-01T16:17:49;3.97;;;1.88;;
25439;SDS011;13365;52.208;5.488;2023-03-01T16:20:15;1.83;;;0.93;;
25439;SDS011;13365;52.208;5.488;2023-03-01T16:22:42;3.78;;;1.40;;
25439;SDS011;13365;52.208;5.488;2023-03-01T16:25:12;1.88;;;1.13;;
25439;SDS011;13365;52.208;5.488;2023-03-01T16:27:41;2.90;;;1.42;;
25439;SDS011;13365;52.208;5.488;2023-03-01T16:30:08;2.95;;;1.58;;
25439;SDS011;13365;52.208;5.488;2023-03-01T16:32:41;2.28;;;1.30;;
25439;SDS011;13365;52.208;5.488;2023-03-01T16:35:08;2.60;;;1.27;;
25439;SDS011;13365;52.208;5.488;2023-03-01T16:37:36;3.83;;;2.03;;
25439;SDS011;13365;52.208;5.488;2023-03-01T16:40:03;3.83;;;1.67;;
25439;SDS011;13365;52.208;5.488;2023-03-01T16:42:33;6.45;;;1.90;;
25439;SDS011;13365;52.208;5.488;2023-03-01T16:44:59;5.07;;;2.03;;
25439;SDS011;13365;52.208;5.488;2023-03-01T16:47:26;3.55;;;1.27;;
25439;SDS011;13365;52.208;5.488;2023-03-01T16:49:52;3.20;;;1.70;;
25439;SDS011;13365;52.208;5.488;2023-03-01T16:52:18;3.53;;;1.77;;
25439;SDS011;13365;52.208;5.488;2023-03-01T16:54:45;3.78;;;1.67;;
25439;SDS011;13365;52.208;5.488;2023-03-01T16:57:10;3.85;;;1.80;;
25439;SDS011;13365;52.208;5.488;2023-03-01T16:59:36;4.13;;;1.98;;
25439;SDS011;13365;52.208;5.488;2023-03-01T17:02:02;2.58;;;1.42;;
25439;SDS011;13365;52.208;5.488;2023-03-01T17:04:34;2.78;;;1.33;;
25439;SDS011;13365;52.208;5.488;2023-03-01T17:07:00;5.05;;;1.92;;
25439;SDS011;13365;52.208;5.488;2023-03-01T17:09:25;2.67;;;1.08;;
25439;SDS011;13365;52.208;5.488;2023-03-01T17:11:51;2.30;;;1.20;;
25439;SDS011;13365;52.208;5.488;2023-03-01T17:14:16;5.32;;;2.38;;